Long Island City, NY

1:28 PM EDT on October 25, 2014 (GMT -0400)
Greenpoint | Change Station
CLOSE
Current Station
Personal Weather Station
Location: Brooklyn, NY
Elevation: 23 ft
Nearby Weather Stations

Elev 23 ft 40.73 °N, 73.95 °W | Updated 4 minutes ago

Clear
Clear
65.7 °F
Feels Like 65.7 °F
N
1.0
Wind Variable Wind from SSW
Gusts 7.0 mph

Today
High -- | Low -- °F
--% Chance of Precip.
Yesterday
High -- | Low -- °F
Precip. -- in
7:17 AM 6:00 PM
Waxing Crescent, 4% visible
Pressure 29.77 in
Visibility 10.0 miles
Clouds Clear
Dew Point 44 °F
Humidity 45%
Rainfall 0.00 in
Snow Depth Not available.
UV 4 out of 12
Pollen 1.40 out of 12
Air Quality Not available.
Flu Activity Sporadic
METAR KNYC 251651Z AUTO VRB03KT 10SM CLR 17/05 A2980 RMK AO2 SLP081 T01720050 $

More Conditions Fewer Conditions

Pressure 29.77 in
Visibility 10.0 miles
Clouds Clear
Dew Point 44 °F
Humidity 45%
Rainfall 0.00 in
Snow Depth Not available.
UV 4 out of 12
Pollen 1.40 out of 12
Air Quality Not available.
Flu Activity Sporadic
METAR KNYC 251651Z AUTO VRB03KT 10SM CLR 17/05 A2980 RMK AO2 SLP081 T01720050 $

More Conditions Fewer Conditions

10-Day Weather Forecast

Almanac

Astronomy

Oct. 25, 2014 Rise Set
Actual Time 7:17 AM EDT 6:00 PM EDT
Civil Twilight 6:49 AM EDT 6:28 PM EDT
Nautical Twilight 6:17 AM EDT 7:01 PM EDT
Astronomical Twilight 5:46 AM EDT 7:32 PM EDT
Moon 8:54 AM EDT 7:21 PM EDT
Length of Visible Light 11h 39m
Length of Day
10h 42m
Tomorrow will be 2m 29s shorter.
Waxing Crescent, 4% of the Moon is Illuminated
Today
Waxing Crescent
Oct 30
First Quarter
Nov 6
Full
Nov 14
Last Quarter
Nov 22
New

Today's Extremes

State Highs State Lows

Community

WunderPhotos

Upload Photos

1,764,918 photos uploaded!

Nearby

Snow Depth

Station Depth Elevation
No new snow has been reported.

Earthquake Activity

City Distance Mag. Time & Date
No recent earthquake activity has been reported nearby.
Minimum magnitude displayed is 2.5.

Coastal Water Temperatures

Place Temperature
Sandy Hook, NJ 57.0 °F
The Battery, NY 61.0 °F
Bergen Point West Reach, NJ 60.1 °F

Nearby Weather Stations